Time;durP1;ratioP1;P1;durP2;ratioP2;P2;SDS_P1;SDS_P2;PMS_P1;PMS_P2;Temp;Humidity;BMP_temperature;BMP_pressure;BME280_temperature;BME280_humidity;BME280_pressure;Samples;Min_cycle;Max_cycle;Signal;HPM_P1;HPM_P2
2023/05/09 00:00:05;;;;;;;13.85;12.65;;;;;;;17.55;75.17;100451.28;10164058;28;20475;-74
2023/05/09 00:05:08;;;;;;;13.35;12.25;;;;;;;17.51;75.38;100449.91;10165758;28;20150;-72
2023/05/09 00:10:10;;;;;;;13.52;12.23;;;;;;;17.53;75.43;100447.88;10161463;28;20067;-69
2023/05/09 00:15:11;;;;;;;13.07;11.88;;;;;;;17.52;75.69;100451.63;10169468;28;20744;-72
2023/05/09 00:20:13;;;;;;;15.57;14.05;;;;;;;17.55;75.67;100443.22;10168231;28;20497;-72
2023/05/09 00:25:14;;;;;;;16.95;15.38;;;;;;;17.52;75.70;100427.38;10165909;28;20055;-71
2023/05/09 00:30:16;;;;;;;15.45;14.00;;;;;;;17.48;75.97;100426.03;10169243;28;20596;-72
2023/05/09 00:35:18;;;;;;;16.88;15.32;;;;;;;17.47;76.48;100433.28;10168104;28;20052;-72
2023/05/09 00:40:19;;;;;;;16.10;14.68;;;;;;;17.47;76.38;100432.41;10164590;28;20442;-72
2023/05/09 00:45:20;;;;;;;15.77;14.48;;;;;;;17.44;76.32;100411.22;10172628;28;20052;-72
2023/05/09 00:50:25;;;;;;;15.88;14.30;;;;;;;17.43;76.20;100409.50;10164914;28;20131;-71
2023/05/09 00:55:26;;;;;;;15.50;13.98;;;;;;;17.42;76.50;100397.91;10162128;28;20710;-72
2023/05/09 01:00:28;;;;;;;16.88;15.30;;;;;;;17.41;76.50;100400.78;10169530;28;20138;-74
2023/05/09 01:05:42;;;;;;;15.65;14.27;;;;;;;17.41;76.55;100393.53;10168420;28;20146;-72
2023/05/09 01:11:02;;;;;;;16.40;14.77;;;;;;;17.43;76.56;100390.69;10165867;28;20627;-72
2023/05/09 01:16:28;;;;;;;16.00;14.50;;;;;;;17.41;76.68;100388.16;10154349;28;20495;-72
2023/05/09 01:21:31;;;;;;;17.23;15.63;;;;;;;17.35;76.90;100383.44;10163159;28;20119;-74
2023/05/09 01:26:42;;;;;;;16.77;15.27;;;;;;;17.38;76.85;100379.59;10160848;28;20059;-73
2023/05/09 01:31:45;;;;;;;16.42;14.93;;;;;;;17.34;76.84;100368.31;10168809;28;20078;-72
2023/05/09 01:36:49;;;;;;;16.63;15.13;;;;;;;17.36;77.04;100376.22;10160436;29;20119;-73
2023/05/09 01:41:54;;;;;;;16.30;14.68;;;;;;;17.38;77.22;100383.09;10157749;28;20431;-72
2023/05/09 01:46:57;;;;;;;17.38;15.68;;;;;;;17.39;76.67;100370.50;10157736;29;20056;-73
2023/05/09 01:52:02;;;;;;;15.63;14.25;;;;;;;17.40;76.46;100370.34;10162844;28;20071;-72
2023/05/09 01:57:06;;;;;;;17.42;15.85;;;;;;;17.35;76.30;100361.09;10160683;28;20059;-72
2023/05/09 02:02:08;;;;;;;14.25;13.02;;;;;;;17.32;76.61;100354.19;10162112;28;20531;-73
2023/05/09 02:07:11;;;;;;;15.57;14.20;;;;;;;17.29;76.46;100355.38;10157928;28;20051;-74
2023/05/09 02:12:12;;;;;;;14.63;13.32;;;;;;;17.26;76.46;100342.25;10163059;28;20058;-73
2023/05/09 02:17:15;;;;;;;15.45;14.05;;;;;;;17.22;76.45;100338.19;10167318;28;20143;-75
2023/05/09 02:22:17;;;;;;;15.47;14.17;;;;;;;17.17;76.72;100342.38;10164729;29;20059;-72
2023/05/09 02:27:20;;;;;;;15.57;14.07;;;;;;;17.12;77.03;100337.50;10162734;28;20054;-74
2023/05/09 02:32:25;;;;;;;14.50;13.20;;;;;;;17.14;76.91;100348.91;10157627;28;20114;-73
2023/05/09 02:37:27;;;;;;;14.43;12.70;;;;;;;17.13;76.76;100345.41;10165077;28;20079;-73
2023/05/09 02:42:29;;;;;;;14.73;13.43;;;;;;;17.06;76.80;100335.47;10163458;28;20553;-73
2023/05/09 02:47:30;;;;;;;14.63;13.35;;;;;;;16.99;77.14;100326.38;10154791;29;20058;-71
2023/05/09 02:52:32;;;;;;;15.00;13.80;;;;;;;17.01;77.04;100332.41;10165350;28;20051;-72
2023/05/09 02:57:33;;;;;;;15.57;14.18;;;;;;;16.96;77.12;100316.78;10161517;28;20079;-72
2023/05/09 03:02:35;;;;;;;13.18;12.02;;;;;;;16.99;77.15;100315.59;10159123;28;20601;-73
2023/05/09 03:07:37;;;;;;;15.55;14.25;;;;;;;16.99;77.01;100313.75;10156530;28;20059;-72
2023/05/09 03:12:38;;;;;;;14.93;13.43;;;;;;;16.96;77.42;100322.16;10155328;29;20806;-73
2023/05/09 03:17:40;;;;;;;13.95;12.77;;;;;;;16.93;77.16;100312.59;10157394;28;20776;-72
2023/05/09 03:22:41;;;;;;;13.80;12.60;;;;;;;16.99;77.46;100319.13;10163166;28;20807;-73
2023/05/09 03:27:43;;;;;;;14.40;12.93;;;;;;;16.98;77.34;100303.16;10168741;28;20068;-73
2023/05/09 03:32:44;;;;;;;14.85;13.52;;;;;;;16.99;77.79;100299.47;10170698;28;20051;-72
2023/05/09 03:37:46;;;;;;;15.45;13.93;;;;;;;16.99;77.29;100304.84;10166626;28;20055;-73
2023/05/09 03:42:47;;;;;;;15.63;14.23;;;;;;;16.95;77.16;100288.22;10182091;28;20070;-72
2023/05/09 03:47:48;;;;;;;16.52;14.85;;;;;;;16.92;76.94;100297.44;10164988;28;20848;-73
2023/05/09 03:52:50;;;;;;;14.70;13.40;;;;;;;16.90;76.99;100299.47;10168436;28;20134;-72
2023/05/09 03:57:51;;;;;;;13.85;12.63;;;;;;;16.93;77.73;100295.59;10165063;28;20201;-73
2023/05/09 04:02:52;;;;;;;14.73;13.48;;;;;;;16.94;77.06;100292.72;10163657;28;22545;-72
2023/05/09 04:07:54;;;;;;;14.85;13.45;;;;;;;16.91;76.95;100276.94;10163053;28;20044;-73
2023/05/09 04:12:55;;;;;;;15.32;13.82;;;;;;;16.91;77.25;100276.94;10168580;28;20154;-73
2023/05/09 04:17:57;;;;;;;14.60;13.30;;;;;;;16.89;76.48;100278.97;10170908;28;20146;-74
2023/05/09 04:22:58;;;;;;;15.27;13.77;;;;;;;16.92;77.15;100288.56;10162161;28;20091;-73
2023/05/09 04:28:00;;;;;;;14.43;13.00;;;;;;;16.94;76.67;100292.72;10156835;28;20261;-73
2023/05/09 04:33:02;;;;;;;15.70;14.30;;;;;;;16.95;76.39;100294.44;10178979;28;20130;-73
2023/05/09 04:38:03;;;;;;;15.43;14.05;;;;;;;16.94;76.43;100295.41;10163381;28;20086;-73
2023/05/09 04:43:05;;;;;;;15.25;13.85;;;;;;;16.92;76.49;100278.63;10167316;28;20056;-75
2023/05/09 04:48:06;;;;;;;16.05;14.48;;;;;;;16.99;76.50;100289.56;10156993;28;20050;-71
2023/05/09 04:53:08;;;;;;;16.85;15.27;;;;;;;16.99;76.81;100277.97;10168483;28;20507;-74
2023/05/09 04:58:09;;;;;;;15.68;14.27;;;;;;;16.99;77.30;100272.59;10154631;28;20067;-73
2023/05/09 05:03:11;;;;;;;15.52;14.02;;;;;;;16.99;76.99;100261.84;10150756;28;20131;-72
2023/05/09 05:08:13;;;;;;;17.73;16.02;;;;;;;16.99;77.04;100251.06;10144790;28;20058;-71
2023/05/09 05:13:15;;;;;;;16.10;14.70;;;;;;;17.04;77.10;100254.09;10164267;28;20058;-72
2023/05/09 05:18:16;;;;;;;16.23;14.73;;;;;;;17.08;77.17;100250.06;10148715;28;20062;-76
2023/05/09 05:23:18;;;;;;;16.75;15.10;;;;;;;17.14;76.93;100249.41;10147463;28;20052;-73
2023/05/09 05:28:19;;;;;;;15.80;14.27;;;;;;;17.17;76.88;100253.63;10141815;28;20747;-75
2023/05/09 05:33:21;;;;;;;17.05;15.60;;;;;;;17.17;76.58;100249.06;10145907;28;20064;-70
2023/05/09 05:38:22;;;;;;;18.02;14.32;;;;;;;17.27;76.85;100254.31;10150323;28;20070;-73
2023/05/09 05:43:23;;;;;;;18.38;16.60;;;;;;;17.31;76.48;100240.34;10153414;28;20138;-72
2023/05/09 05:48:25;;;;;;;17.63;15.73;;;;;;;17.36;76.13;100241.72;10161830;28;20471;-75
2023/05/09 05:53:26;;;;;;;17.00;15.27;;;;;;;17.41;75.74;100237.47;10174498;28;20052;-74
2023/05/09 05:58:28;;;;;;;17.60;15.90;;;;;;;17.45;75.97;100244.22;10147504;28;20111;-74
2023/05/09 06:03:29;;;;;;;16.65;15.05;;;;;;;17.53;75.96;100237.97;10145651;28;20047;-72
2023/05/09 06:08:31;;;;;;;15.95;13.68;;;;;;;17.66;76.06;100232.09;10143023;28;20149;-74
2023/05/09 06:13:32;;;;;;;16.92;15.32;;;;;;;17.88;75.18;100230.56;10145631;28;20513;-71
2023/05/09 06:18:36;;;;;;;15.93;14.32;;;;;;;18.01;74.10;100230.88;10142767;28;20059;-72
2023/05/09 06:23:37;;;;;;;;;;;;;;;18.16;73.62;100228.28;10140410;28;20830;-71
2023/05/09 06:28:51;;;;;;;16.77;15.05;;;;;;;18.28;73.23;100220.66;10138545;28;20242;-71
2023/05/09 06:33:52;;;;;;;13.75;12.30;;;;;;;18.37;71.77;100221.47;10142560;28;20059;-70
2023/05/09 06:38:53;;;;;;;15.95;14.45;;;;;;;18.41;71.67;100211.22;10143445;28;20421;-73
2023/05/09 06:43:55;;;;;;;15.80;14.20;;;;;;;18.41;71.44;100203.13;10144838;28;20127;-71
2023/05/09 06:48:56;;;;;;;16.17;14.68;;;;;;;18.38;71.29;100199.75;10140866;28;20048;-69
2023/05/09 06:53:57;;;;;;;15.60;14.07;;;;;;;18.45;70.74;100188.25;10138646;28;20114;-73
2023/05/09 06:58:59;;;;;;;13.88;12.60;;;;;;;18.52;71.17;100189.25;10144762;28;20148;-71
2023/05/09 07:04:00;;;;;;;15.90;14.35;;;;;;;18.53;70.26;100180.16;10151775;28;20110;-71
2023/05/09 07:09:03;;;;;;;14.90;13.60;;;;;;;18.59;69.81;100179.44;10149865;28;20315;-70
2023/05/09 07:14:04;;;;;;;14.40;13.13;;;;;;;18.69;69.13;100177.34;10150741;28;20870;-71
2023/05/09 07:19:06;;;;;;;14.60;13.25;;;;;;;18.66;69.14;100175.00;10153919;28;20155;-74
2023/05/09 07:24:07;;;;;;;15.00;13.55;;;;;;;18.64;69.35;100171.63;10148099;28;20537;-68
2023/05/09 07:29:09;;;;;;;13.48;12.27;;;;;;;18.79;68.98;100150.13;10148595;28;20085;-72
2023/05/09 07:34:10;;;;;;;14.80;13.30;;;;;;;18.99;68.11;100150.53;10152208;28;20743;-70
2023/05/09 07:39:12;;;;;;;14.23;13.02;;;;;;;18.97;67.51;100133.69;10148205;28;20055;-71
2023/05/09 07:44:13;;;;;;;13.02;11.80;;;;;;;19.03;67.50;100140.22;10148851;28;20056;-70
2023/05/09 07:49:14;;;;;;;12.57;11.48;;;;;;;18.94;68.24;100134.03;10147306;28;20064;-72
2023/05/09 07:54:16;;;;;;;13.30;11.85;;;;;;;18.99;68.51;100125.41;10155819;28;20071;-72
2023/05/09 07:59:18;;;;;;;13.88;12.57;;;;;;;18.97;68.54;100100.47;10152039;28;20158;-70
2023/05/09 08:04:19;;;;;;;12.98;11.77;;;;;;;19.04;68.34;100112.22;10144799;28;20051;-72
2023/05/09 08:09:21;;;;;;;14.68;13.15;;;;;;;18.93;68.39;100113.50;10146205;28;20063;-69
2023/05/09 08:14:22;;;;;;;14.05;12.73;;;;;;;18.90;68.49;100106.63;10149325;28;20199;-70
2023/05/09 08:19:25;;;;;;;12.50;11.40;;;;;;;18.91;68.73;100107.44;10147467;28;20489;-70
2023/05/09 08:24:26;;;;;;;15.00;13.48;;;;;;;18.83;68.95;100099.41;10148740;28;20240;-70
2023/05/09 08:29:28;;;;;;;12.77;11.65;;;;;;;18.78;68.86;100091.00;10151698;28;20186;-74
2023/05/09 08:34:33;;;;;;;13.60;12.32;;;;;;;18.80;69.11;100089.81;10151097;28;20056;-70
2023/05/09 08:39:34;;;;;;;13.77;12.30;;;;;;;18.81;68.94;100093.31;10143408;28;20054;-70
2023/05/09 08:44:36;;;;;;;12.60;11.50;;;;;;;18.76;68.98;100079.56;10145926;28;20036;-70
2023/05/09 08:49:38;;;;;;;14.43;13.02;;;;;;;18.82;68.93;100065.34;10142129;28;20059;-73
2023/05/09 08:54:40;;;;;;;13.95;12.55;;;;;;;18.95;68.92;100064.78;10148960;29;20063;-70
2023/05/09 08:59:42;;;;;;;13.20;12.00;;;;;;;19.05;68.88;100059.94;10151358;28;20161;-70
2023/05/09 09:04:44;;;;;;;14.43;12.90;;;;;;;19.19;68.80;100055.59;10147530;28;20495;-71
2023/05/09 09:09:47;;;;;;;14.10;12.50;;;;;;;19.24;68.17;100053.19;10144044;28;20056;-71
2023/05/09 09:14:53;;;;;;;12.52;11.40;;;;;;;19.24;68.19;100045.09;10142187;28;20052;-71
2023/05/09 09:19:59;;;;;;;14.50;13.05;;;;;;;19.26;68.19;100043.06;10145435;28;20054;-71
2023/05/09 09:25:02;;;;;;;11.52;10.50;;;;;;;19.30;68.55;100036.25;10147712;28;20363;-71
2023/05/09 09:30:08;;;;;;;11.15;10.15;;;;;;;19.27;68.21;100044.72;10165244;28;20142;-71
2023/05/09 09:35:10;;;;;;;12.82;11.73;;;;;;;19.21;68.25;100022.00;10155475;28;20670;-71
2023/05/09 09:40:13;;;;;;;12.65;11.45;;;;;;;19.23;69.14;100024.50;10149839;28;20051;-70
2023/05/09 09:45:17;;;;;;;12.25;11.00;;;;;;;19.14;69.21;100022.94;10152303;28;20079;-72
2023/05/09 09:50:22;;;;;;;12.40;11.30;;;;;;;19.08;69.50;100019.13;10139540;28;20059;-70
2023/05/09 09:55:23;;;;;;;12.25;11.00;;;;;;;19.15;69.50;100006.56;10144156;28;20060;-70
2023/05/09 10:00:26;;;;;;;11.93;10.57;;;;;;;19.22;69.21;99995.88;10150264;28;20048;-70
2023/05/09 10:05:29;;;;;;;13.07;11.47;;;;;;;19.20;69.26;99997.91;10144298;28;20546;-70
2023/05/09 10:10:33;;;;;;;11.47;10.57;;;;;;;19.21;69.46;99986.94;10150870;28;20818;-72
2023/05/09 10:15:36;;;;;;;10.80;9.90;;;;;;;19.30;69.12;99976.88;10139875;28;20051;-72
2023/05/09 10:20:53;;;;;;;11.55;10.43;;;;;;;19.31;68.91;99975.88;10147011;28;20510;-72
2023/05/09 10:26:22;;;;;;;10.90;9.90;;;;;;;19.28;69.76;99967.31;10142975;28;20483;-71
2023/05/09 10:31:30;;;;;;;11.65;10.55;;;;;;;19.25;70.56;99968.53;10147589;28;20356;-70
2023/05/09 10:36:31;;;;;;;11.48;10.45;;;;;;;19.32;72.03;99957.81;10150292;28;20048;-68
2023/05/09 10:41:35;;;;;;;11.27;10.27;;;;;;;19.43;72.60;99941.97;10154384;28;20051;-70
2023/05/09 10:46:37;;;;;;;11.20;10.25;;;;;;;19.59;71.03;99937.34;10152853;28;20549;-74
2023/05/09 10:51:39;;;;;;;11.38;10.23;;;;;;;19.70;69.81;99923.38;10162834;28;20057;-73
2023/05/09 10:56:40;;;;;;;11.27;10.20;;;;;;;19.89;68.89;99910.28;10162314;29;20091;-74
2023/05/09 11:01:42;;;;;;;11.30;10.32;;;;;;;19.98;67.40;99892.91;10174873;28;20138;-71
2023/05/09 11:06:49;;;;;;;11.90;10.70;;;;;;;20.00;66.49;99888.19;10180193;28;20695;-73
2023/05/09 11:11:56;;;;;;;12.88;11.57;;;;;;;19.87;68.09;99890.75;10161776;28;20051;-73
2023/05/09 11:16:59;;;;;;;12.35;11.25;;;;;;;19.67;72.28;99896.75;10155892;28;20063;-72
2023/05/09 11:22:09;;;;;;;13.52;12.32;;;;;;;19.58;73.19;99895.22;10157557;28;20902;-72
2023/05/09 11:27:48;;;;;;;14.60;13.30;;;;;;;19.68;73.36;99870.59;10150988;28;20661;-71
2023/05/09 11:32:54;;;;;;;12.98;11.88;;;;;;;20.02;73.09;99867.19;10152889;28;20069;-72
2023/05/09 11:38:00;;;;;;;14.38;12.77;;;;;;;20.25;73.36;99860.72;10150707;28;20627;-73
2023/05/09 11:43:02;;;;;;;13.02;11.82;;;;;;;20.18;72.95;99849.06;10152768;28;21521;-72
2023/05/09 11:48:07;;;;;;;13.20;11.63;;;;;;;20.23;72.58;99833.06;10152546;28;20063;-71
2023/05/09 11:53:11;;;;;;;12.63;11.57;;;;;;;20.17;72.26;99832.00;10143552;29;20059;-73
2023/05/09 11:58:12;;;;;;;12.80;11.73;;;;;;;20.11;71.83;99828.19;10148384;28;20052;-71
2023/05/09 12:03:14;;;;;;;13.57;11.35;;;;;;;20.09;72.30;99808.66;10148590;28;20051;-73
2023/05/09 12:08:15;;;;;;;11.73;10.30;;;;;;;20.20;72.55;99803.75;10149730;28;20130;-72
2023/05/09 12:13:18;;;;;;;10.93;9.85;;;;;;;20.36;72.02;99808.03;10151253;28;20048;-72
2023/05/09 12:18:19;;;;;;;10.50;9.17;;;;;;;20.38;71.28;99795.97;10145221;28;20052;-71
2023/05/09 12:23:22;;;;;;;9.68;8.52;;;;;;;20.38;69.56;99785.16;10153505;28;20135;-71
2023/05/09 12:28:25;;;;;;;10.07;9.07;;;;;;;20.35;68.62;99780.13;10149410;28;20056;-68
2023/05/09 12:33:27;;;;;;;9.18;8.27;;;;;;;20.35;68.62;99772.03;10149542;28;20059;-71
2023/05/09 12:38:28;;;;;;;9.13;8.15;;;;;;;20.46;68.83;99754.41;10145645;28;20054;-70
2023/05/09 12:43:34;;;;;;;8.98;8.10;;;;;;;20.44;68.62;99751.09;10145554;28;20177;-70
2023/05/09 12:48:37;;;;;;;8.48;7.78;;;;;;;20.47;68.92;99748.81;10149912;28;20060;-74
2023/05/09 12:53:40;;;;;;;8.88;8.18;;;;;;;20.42;67.81;99735.06;10145586;28;20419;-69
2023/05/09 12:58:50;;;;;;;6.70;6.05;;;;;;;20.46;67.76;99721.97;10142388;28;20059;-71
2023/05/09 13:04:01;;;;;;;9.35;7.88;;;;;;;20.64;68.50;99713.31;10144692;28;20058;-68
2023/05/09 13:09:04;;;;;;;10.00;9.10;;;;;;;20.56;70.70;99708.09;10146574;28;20454;-71
2023/05/09 13:14:07;;;;;;;10.10;8.27;;;;;;;20.49;70.79;99700.78;10149647;28;20051;-68
2023/05/09 13:19:09;;;;;;;10.10;9.20;;;;;;;20.51;71.69;99686.22;10146317;28;20063;-70
2023/05/09 13:24:10;;;;;;;9.43;8.25;;;;;;;20.63;71.62;99674.63;10147746;28;20154;-69
2023/05/09 13:29:11;;;;;;;10.20;9.30;;;;;;;20.52;71.60;99663.56;10143367;28;20055;-71
2023/05/09 13:34:13;;;;;;;10.32;9.27;;;;;;;20.33;72.58;99651.63;10143592;28;20150;-72
2023/05/09 13:39:15;;;;;;;10.57;8.48;;;;;;;20.27;72.74;99653.31;10148045;28;20074;-73
2023/05/09 13:44:17;;;;;;;9.50;8.60;;;;;;;20.27;72.40;99642.50;10149981;28;20108;-72
2023/05/09 13:49:18;;;;;;;10.25;8.85;;;;;;;20.12;72.89;99635.34;10159073;28;20176;-71
2023/05/09 13:54:21;;;;;;;10.35;7.63;;;;;;;20.10;73.14;99628.47;10147865;28;20086;-69
2023/05/09 13:59:23;;;;;;;8.70;7.90;;;;;;;20.18;72.64;99622.91;10146294;28;20328;-72
2023/05/09 14:04:30;;;;;;;10.40;9.40;;;;;;;20.08;73.52;99622.44;10160629;28;20046;-70
2023/05/09 14:09:37;;;;;;;10.02;9.05;;;;;;;20.08;73.60;99617.88;10139522;28;21008;-71
2023/05/09 14:14:38;;;;;;;9.77;8.80;;;;;;;20.03;73.92;99604.16;10147760;28;20048;-72
2023/05/09 14:19:39;;;;;;;9.75;8.85;;;;;;;20.01;74.15;99595.44;10138610;28;20142;-70
2023/05/09 14:24:41;;;;;;;11.52;9.98;;;;;;;19.93;74.38;99591.00;10140878;28;20190;-68
2023/05/09 14:29:42;;;;;;;10.95;9.85;;;;;;;19.87;75.36;99582.88;10145472;28;20486;-69
2023/05/09 14:34:44;;;;;;;10.68;9.68;;;;;;;19.94;76.21;99581.06;10140892;28;20099;-71
2023/05/09 14:39:46;;;;;;;10.65;9.65;;;;;;;20.11;76.51;99563.44;10148736;29;20075;-72
2023/05/09 14:44:47;;;;;;;10.98;9.88;;;;;;;20.17;76.12;99555.56;10139667;28;20078;-71
2023/05/09 14:49:49;;;;;;;11.25;10.15;;;;;;;20.29;76.53;99532.31;10140613;28;20056;-73
2023/05/09 14:54:50;;;;;;;11.73;10.73;;;;;;;20.07;76.75;99529.78;10144871;28;20164;-71
2023/05/09 14:59:51;;;;;;;10.50;9.52;;;;;;;19.98;77.18;99525.56;10141311;28;20071;-68
2023/05/09 15:04:54;;;;;;;11.85;10.57;;;;;;;19.73;77.89;99528.78;10141677;28;20060;-69
2023/05/09 15:09:56;;;;;;;10.83;9.80;;;;;;;19.57;78.58;99523.72;10142567;28;20373;-71
2023/05/09 15:15:11;;;;;;;10.10;9.00;;;;;;;19.73;78.39;99515.28;10155387;28;20191;-71
2023/05/09 15:20:14;;;;;;;11.18;10.25;;;;;;;19.50;78.62;99502.09;10144135;28;20127;-73
2023/05/09 15:25:16;;;;;;;9.60;8.70;;;;;;;19.45;79.96;99503.72;10152827;28;20048;-72
2023/05/09 15:30:17;;;;;;;9.18;8.38;;;;;;;19.50;80.85;99512.06;10148661;28;20138;-72
2023/05/09 15:35:19;;;;;;;10.35;9.05;;;;;;;19.59;81.51;99529.75;10150681;28;20734;-70
2023/05/09 15:40:20;;;;;;;15.02;11.05;;;;;;;19.62;82.57;99515.84;10149123;28;21552;-73
2023/05/09 15:45:22;;;;;;;12.10;10.35;;;;;;;19.66;83.95;99535.19;10151211;28;20047;-70
2023/05/09 15:50:23;;;;;;;12.85;11.55;;;;;;;19.57;85.40;99532.63;10157955;28;20052;-70
2023/05/09 15:55:24;;;;;;;13.13;11.80;;;;;;;19.41;88.93;99509.53;10148336;28;20158;-71
2023/05/09 16:00:29;;;;;;;12.48;11.38;;;;;;;19.42;86.80;99489.59;10145071;28;20072;-69
2023/05/09 16:05:30;;;;;;;13.77;12.38;;;;;;;19.31;88.81;99471.28;10148291;28;20059;-69
2023/05/09 16:10:31;;;;;;;11.90;10.90;;;;;;;19.32;91.55;99462.16;10146728;28;20529;-71
2023/05/09 16:15:33;;;;;;;13.10;11.88;;;;;;;19.38;91.98;99450.56;10150979;28;20052;-74
2023/05/09 16:20:35;;;;;;;12.88;11.88;;;;;;;19.36;91.21;99435.59;10142216;28;20052;-70
2023/05/09 16:25:37;;;;;;;14.82;13.48;;;;;;;19.08;91.75;99441.91;10146835;28;20095;-70
2023/05/09 16:30:38;;;;;;;13.82;12.52;;;;;;;19.01;92.02;99428.38;10147050;28;20150;-66
2023/05/09 16:35:40;;;;;;;14.15;12.73;;;;;;;18.97;91.79;99419.00;10146077;28;20052;-70
2023/05/09 16:40:41;;;;;;;12.98;11.75;;;;;;;19.02;92.27;99419.25;10144567;28;20052;-71
2023/05/09 16:45:43;;;;;;;11.50;10.60;;;;;;;19.02;93.03;99418.41;10144834;28;20083;-69
2023/05/09 16:50:45;;;;;;;13.88;12.57;;;;;;;19.07;92.07;99414.09;10139828;28;20146;-71
2023/05/09 16:55:47;;;;;;;13.27;12.00;;;;;;;19.02;91.91;99402.22;10142360;28;20127;-72
2023/05/09 17:00:49;;;;;;;12.85;11.73;;;;;;;18.75;93.56;99402.06;10141044;28;20052;-69
2023/05/09 17:05:50;;;;;;;13.88;12.52;;;;;;;18.81;93.88;99417.44;10144862;28;20071;-73
2023/05/09 17:10:52;;;;;;;14.85;12.48;;;;;;;18.85;94.37;99425.97;10139995;28;20516;-71
2023/05/09 17:15:53;;;;;;;13.25;11.98;;;;;;;18.97;95.22;99431.66;10139376;28;20084;-72
2023/05/09 17:20:55;;;;;;;13.18;12.07;;;;;;;18.98;95.29;99434.16;10140840;28;20067;-69
2023/05/09 17:25:56;;;;;;;12.55;11.35;;;;;;;18.99;93.77;99430.44;10146246;28;20691;-70
2023/05/09 17:30:58;;;;;;;13.70;12.40;;;;;;;18.98;95.62;99422.56;10143462;28;20058;-68
2023/05/09 17:36:00;;;;;;;12.90;11.80;;;;;;;18.98;94.77;99425.25;10145887;28;20100;-70
2023/05/09 17:41:01;;;;;;;12.27;11.23;;;;;;;18.96;94.42;99409.28;10151382;28;20058;-73
2023/05/09 17:46:03;;;;;;;13.52;12.32;;;;;;;18.97;95.09;99404.69;10157473;28;20083;-71
2023/05/09 17:51:05;;;;;;;14.25;12.82;;;;;;;18.88;95.67;99402.16;10140339;28;20161;-72
2023/05/09 17:56:06;;;;;;;15.25;13.85;;;;;;;18.89;95.34;99403.00;10138163;28;20400;-68
2023/05/09 18:01:08;;;;;;;13.90;12.60;;;;;;;18.89;93.94;99392.22;10141037;28;20147;-71
2023/05/09 18:06:09;;;;;;;15.15;13.77;;;;;;;18.86;94.69;99376.44;10160185;28;20091;-70
2023/05/09 18:11:11;;;;;;;15.15;12.13;;;;;;;18.82;94.56;99370.56;10144167;28;20068;-71
2023/05/09 18:16:12;;;;;;;11.10;9.50;;;;;;;18.77;90.63;99383.00;10137837;29;20163;-73
2023/05/09 18:21:14;;;;;;;10.25;9.35;;;;;;;18.73;90.55;99382.53;10139051;28;20623;-74
2023/05/09 18:26:15;;;;;;;11.77;10.68;;;;;;;18.68;90.69;99401.19;10140439;28;20839;-69
2023/05/09 18:31:17;;;;;;;10.75;9.65;;;;;;;18.70;91.67;99426.88;10145451;28;20056;-71
2023/05/09 18:36:19;;;;;;;7.53;6.75;;;;;;;18.43;89.73;99430.44;10141302;28;20052;-68
2023/05/09 18:41:20;;;;;;;7.70;6.90;;;;;;;18.38;92.47;99420.22;10144106;28;20119;-71
2023/05/09 18:46:22;;;;;;;7.60;6.80;;;;;;;18.42;93.14;99426.91;10140894;28;20780;-71
2023/05/09 18:51:24;;;;;;;8.40;6.38;;;;;;;18.37;93.40;99438.28;10138707;29;20059;-73
2023/05/09 18:56:25;;;;;;;9.25;7.78;;;;;;;18.31;93.64;99441.72;10142222;28;20067;-69
2023/05/09 19:01:27;;;;;;;6.88;6.28;;;;;;;18.24;92.21;99448.94;10147937;28;20617;-69
2023/05/09 19:06:28;;;;;;;6.45;5.85;;;;;;;18.20;92.59;99442.25;10148210;28;20678;-71
2023/05/09 19:11:30;;;;;;;5.85;5.22;;;;;;;18.09;92.50;99440.91;10147187;28;20107;-73
2023/05/09 19:16:31;;;;;;;4.78;4.28;;;;;;;18.00;93.25;99429.44;10144155;28;20078;-73
2023/05/09 19:21:34;;;;;;;5.07;4.68;;;;;;;17.99;93.69;99430.44;10148014;28;20055;-69
2023/05/09 19:26:35;;;;;;;6.00;5.18;;;;;;;17.91;91.07;99427.88;10149392;28;20066;-71
2023/05/09 19:31:37;;;;;;;5.55;5.05;;;;;;;17.86;92.04;99435.66;10145292;28;20771;-69
2023/05/09 19:36:38;;;;;;;5.00;4.60;;;;;;;17.92;91.42;99443.00;10149576;28;20043;-69
2023/05/09 19:41:40;;;;;;;4.43;4.03;;;;;;;17.80;92.88;99439.13;10148659;28;20604;-71
2023/05/09 19:46:41;;;;;;;4.90;3.63;;;;;;;17.72;95.48;99433.88;10148875;28;20159;-68
2023/05/09 19:51:43;;;;;;;5.00;4.50;;;;;;;17.62;94.06;99447.59;10145689;28;20059;-71
2023/05/09 19:56:44;;;;;;;5.28;4.78;;;;;;;17.53;95.25;99457.63;10142362;28;20071;-71
2023/05/09 20:01:46;;;;;;;6.90;5.30;;;;;;;17.46;97.30;99451.38;10147909;28;20090;-72
2023/05/09 20:06:47;;;;;;;4.32;3.92;;;;;;;17.53;95.94;99446.06;10146230;28;20058;-73
2023/05/09 20:11:49;;;;;;;5.05;3.97;;;;;;;17.52;97.34;99445.22;10145808;28;20829;-71
2023/05/09 20:16:50;;;;;;;3.63;3.33;;;;;;;17.45;95.87;99430.84;10146760;28;20048;-71
2023/05/09 20:21:52;;;;;;;3.45;3.15;;;;;;;17.43;96.57;99430.19;10137582;28;20055;-76
2023/05/09 20:26:54;;;;;;;3.65;3.25;;;;;;;17.41;96.85;99421.50;10147863;28;20080;-72
2023/05/09 20:31:55;;;;;;;5.88;4.57;;;;;;;17.49;96.32;99418.69;10145616;28;20135;-70
2023/05/09 20:36:57;;;;;;;3.85;3.55;;;;;;;17.45;98.00;99418.22;10142415;28;20518;-73
2023/05/09 20:42:01;;;;;;;6.20;4.00;;;;;;;17.43;97.19;99419.44;10147060;28;20058;-70
2023/05/09 20:47:02;;;;;;;5.03;4.10;;;;;;;17.45;98.42;99417.41;10144118;28;20051;-70
2023/05/09 20:52:03;;;;;;;6.15;4.63;;;;;;;17.47;98.79;99420.72;10148506;28;20465;-69
2023/05/09 20:57:05;;;;;;;4.68;4.28;;;;;;;17.41;97.08;99421.50;10145623;28;20075;-71
2023/05/09 21:02:07;;;;;;;4.07;3.58;;;;;;;17.42;96.48;99417.78;10152796;28;20631;-76
2023/05/09 21:07:08;;;;;;;3.85;3.55;;;;;;;17.28;95.00;99401.47;10156218;28;20075;-70
2023/05/09 21:12:10;;;;;;;4.03;2.92;;;;;;;17.22;95.88;99404.94;10146181;28;20463;-75
2023/05/09 21:17:11;;;;;;;4.10;3.10;;;;;;;17.18;93.80;99400.94;10145245;28;20062;-73
2023/05/09 21:22:13;;;;;;;3.90;2.90;;;;;;;17.08;95.10;99400.38;10148596;28;20080;-71
2023/05/09 21:27:14;;;;;;;5.00;3.67;;;;;;;17.04;95.75;99396.38;10149426;28;20055;-71
2023/05/09 21:32:15;;;;;;;3.60;3.28;;;;;;;16.99;96.30;99396.13;10145090;28;20059;-74
2023/05/09 21:37:18;;;;;;;4.75;3.90;;;;;;;16.96;96.55;99400.00;10148781;28;20098;-71
2023/05/09 21:42:21;;;;;;;3.70;3.40;;;;;;;16.94;97.01;99383.25;10164467;28;20056;-70
2023/05/09 21:47:23;;;;;;;4.78;4.30;;;;;;;16.84;96.46;99383.47;10158505;28;20052;-72
2023/05/09 21:52:25;;;;;;;4.00;3.13;;;;;;;16.85;96.95;99390.53;10168487;28;20052;-72
2023/05/09 21:57:26;;;;;;;4.00;3.58;;;;;;;16.79;97.03;99381.34;10170859;28;20643;-74
2023/05/09 22:02:28;;;;;;;4.20;3.80;;;;;;;16.73;97.58;99381.28;10159121;28;20047;-74
2023/05/09 22:07:29;;;;;;;4.57;3.80;;;;;;;16.71;97.75;99378.78;10161571;28;20158;-70
2023/05/09 22:12:31;;;;;;;3.55;3.25;;;;;;;16.61;98.23;99376.34;10161989;28;20063;-68
2023/05/09 22:17:32;;;;;;;4.00;3.65;;;;;;;16.63;98.08;99376.16;10165804;28;20051;-71
2023/05/09 22:22:33;;;;;;;4.32;3.22;;;;;;;16.66;98.36;99380.34;10165277;28;20051;-71
2023/05/09 22:27:35;;;;;;;4.07;2.92;;;;;;;16.64;97.54;99371.63;10162239;28;20562;-71
2023/05/09 22:32:37;;;;;;;4.38;3.80;;;;;;;16.59;97.99;99370.31;10172156;28;20056;-71
2023/05/09 22:37:38;;;;;;;4.47;3.17;;;;;;;16.51;98.69;99359.66;10173148;28;20442;-70
2023/05/09 22:42:40;;;;;;;3.38;3.05;;;;;;;16.55;98.34;99362.81;10177084;28;20070;-71
2023/05/09 22:47:41;;;;;;;3.53;3.17;;;;;;;16.54;98.60;99356.63;10172782;28;20048;-71
2023/05/09 22:52:42;;;;;;;4.47;4.07;;;;;;;16.53;98.49;99363.00;10172964;28;20051;-71
2023/05/09 22:57:44;;;;;;;4.43;3.28;;;;;;;16.42;99.12;99364.31;10181617;29;20202;-71